Map

Track Data

SID SEASON NUMBER BASIN SUBBASIN NAME ISO_TIME NATURE LAT LON WMO_WIND WMO_PRES WMO_AGENCY TRACK_TYPE DIST2LAND LANDFALL IFLAG USA_AGENCY USA_ATCF_ID USA_LAT USA_LON USA_RECORD USA_STATUS USA_WIND USA_PRES USA_SSHS USA_R34_NE USA_R34_SE USA_R34_SW USA_R34_NW USA_R50_NE USA_R50_SE USA_R50_SW USA_R50_NW USA_R64_NE USA_R64_SE USA_R64_SW USA_R64_NW USA_POCI USA_ROCI USA_RMW USA_EYE TOKYO_LAT TOKYO_LON TOKYO_GRADE TOKYO_WIND TOKYO_PRES TOKYO_R50_DIR TOKYO_R50_LONG TOKYO_R50_SHORT TOKYO_R30_DIR TOKYO_R30_LONG TOKYO_R30_SHORT TOKYO_LAND CMA_LAT CMA_LON CMA_CAT CMA_WIND CMA_PRES HKO_LAT HKO_LON HKO_CAT HKO_WIND HKO_PRES NEWDELHI_LAT NEWDELHI_LON NEWDELHI_GRADE NEWDELHI_WIND NEWDELHI_PRES NEWDELHI_CI NEWDELHI_DP NEWDELHI_POCI REUNION_LAT REUNION_LON REUNION_TYPE REUNION_WIND REUNION_PRES REUNION_TNUM REUNION_CI REUNION_RMW REUNION_R34_NE REUNION_R34_SE REUNION_R34_SW REUNION_R34_NW REUNION_R50_NE REUNION_R50_SE REUNION_R50_SW REUNION_R50_NW REUNION_R64_NE REUNION_R64_SE REUNION_R64_SW REUNION_R64_NW BOM_LAT BOM_LON BOM_TYPE BOM_WIND BOM_PRES BOM_TNUM BOM_CI BOM_RMW BOM_R34_NE BOM_R34_SE BOM_R34_SW BOM_R34_NW BOM_R50_NE BOM_R50_SE BOM_R50_SW BOM_R50_NW BOM_R64_NE BOM_R64_SE BOM_R64_SW BOM_R64_NW BOM_ROCI BOM_POCI BOM_EYE BOM_POS_METHOD BOM_PRES_METHOD NADI_LAT NADI_LON NADI_CAT NADI_WIND NADI_PRES WELLINGTON_LAT WELLINGTON_LON WELLINGTON_WIND WELLINGTON_PRES DS824_LAT DS824_LON DS824_STAGE DS824_WIND DS824_PRES TD9636_LAT TD9636_LON TD9636_STAGE TD9636_WIND TD9636_PRES TD9635_LAT TD9635_LON TD9635_WIND TD9635_PRES TD9635_ROCI NEUMANN_LAT NEUMANN_LON NEUMANN_CLASS NEUMANN_WIND NEUMANN_PRES MLC_LAT MLC_LON MLC_CLASS MLC_WIND MLC_PRES USA_GUST BOM_GUST BOM_GUST_PER REUNION_GUST REUNION_GUST_PER USA_SEAHGT USA_SEARAD_NE USA_SEARAD_SE USA_SEARAD_SW USA_SEARAD_NW STORM_SPEED STORM_DIR
1954238N24285 1954 48 NA NA CAROL 1954-08-25 12:00:00 TS 23.8000 -75.0000 30 hurdat_atl main 284 253 O_____________ hurdat_atl AL061954 23.8000 -75.0000 TD 30 -1 13 340
1954238N24285 1954 48 NA NA CAROL 1954-08-25 15:00:00 TS 24.4051 -75.2447 main 253 226 P_____________ AL061954 24.4051 -75.2447 TD 30 -1 13 339
1954238N24285 1954 48 NA NA CAROL 1954-08-25 18:00:00 TS 25.0000 -75.5000 30 hurdat_atl main 228 220 O_____________ hurdat_atl AL061954 25.0000 -75.5000 TD 30 -1 13 338
1954238N24285 1954 48 NA NA CAROL 1954-08-25 21:00:00 TS 25.5725 -75.7650 main 224 224 P_____________ AL061954 25.5725 -75.7650 TD 32 -1 12 338
1954238N24285 1954 48 NA NA CAROL 1954-08-26 00:00:00 TS 26.1000 -76.0000 35 hurdat_atl main 229 226 O_____________ hurdat_atl AL061954 26.1000 -76.0000 TS 35 0 11 340
1954238N24285 1954 48 NA NA CAROL 1954-08-26 03:00:00 TS 26.5725 -76.1802 main 245 245 P_____________ AL061954 26.5725 -76.1802 TS 37 0 9 343
1954238N24285 1954 48 NA NA CAROL 1954-08-26 06:00:00 TS 27.0000 -76.3000 40 hurdat_atl main 271 271 O_____________ hurdat_atl AL061954 27.0000 -76.3000 TS 40 0 9 348
1954238N24285 1954 48 NA NA CAROL 1954-08-26 09:00:00 TS 27.4150 -76.3801 main 302 302 P_____________ AL061954 27.4150 -76.3801 TS 42 0 8 354
1954238N24285 1954 48 NA NA CAROL 1954-08-26 12:00:00 TS 27.8000 -76.4000 45 hurdat_atl main 340 340 O_____________ hurdat_atl AL061954 27.8000 -76.4000 TS 45 0 8 2
1954238N24285 1954 48 NA NA CAROL 1954-08-26 15:00:00 TS 28.1725 -76.3651 main 380 380 P_____________ AL061954 28.1725 -76.3651 TS 45 0 7 7
1954238N24285 1954 48 NA NA CAROL 1954-08-26 18:00:00 TS 28.5000 -76.3000 45 1002 hurdat_atl main 409 409 O_____________ hurdat_atl AL061954 28.5000 -76.3000 TS 45 1002 0 6 11
1954238N24285 1954 48 NA NA CAROL 1954-08-26 21:00:00 TS 28.7800 -76.2351 main 420 420 P_____________ AL061954 28.7800 -76.2351 TS 45 1002 0 5 10
1954238N24285 1954 48 NA NA CAROL 1954-08-27 00:00:00 TS 29.0000 -76.2000 45 hurdat_atl main 422 422 I_____________ hurdat_atl AL061954 29.0000 -76.2000 TS 45 1002 0 4 3
1954238N24285 1954 48 NA NA CAROL 1954-08-27 03:00:00 TS 29.1650 -76.2349 main 425 415 P_____________ AL061954 29.1650 -76.2349 TS 47 1002 0 3 344
1954238N24285 1954 48 NA NA CAROL 1954-08-27 06:00:00 TS 29.3000 -76.3000 50 1002 hurdat_atl main 417 417 O_____________ hurdat_atl AL061954 29.3000 -76.3000 TS 50 1002 0 3 341
1954238N24285 1954 48 NA NA CAROL 1954-08-27 09:00:00 TS 29.4575 -76.3500 main 422 413 P_____________ AL061954 29.4575 -76.3500 TS 55 998 0 3 344
1954238N24285 1954 48 NA NA CAROL 1954-08-27 12:00:00 TS 29.6000 -76.4000 60 995 hurdat_atl main 416 416 O_____________ hurdat_atl AL061954 29.6000 -76.4000 TS 60 995 0 3 342
1954238N24285 1954 48 NA NA CAROL 1954-08-27 15:00:00 TS 29.7075 -76.4425 main 419 410 P_____________ AL061954 29.7075 -76.4425 TS 65 989 1 2 335
1954238N24285 1954 48 NA NA CAROL 1954-08-27 18:00:00 TS 29.8000 -76.5000 70 984 hurdat_atl main 414 409 O_____________ hurdat_atl AL061954 29.8000 -76.5000 HU 70 984 1 2 325
1954238N24285 1954 48 NA NA CAROL 1954-08-27 21:00:00 TS 29.9000 -76.5925 main 409 404 P_____________ AL061954 29.9000 -76.5925 HU 75 982 1 3 319
1954238N24285 1954 48 NA NA CAROL 1954-08-28 00:00:00 TS 30.0000 -76.7000 80 981 hurdat_atl main 404 400 O_____________ hurdat_atl AL061954 30.0000 -76.7000 HU 80 981 1 3 321
1954238N24285 1954 48 NA NA CAROL 1954-08-28 03:00:00 TS 30.1075 -76.7925 main 400 391 P_____________ AL061954 30.1075 -76.7925 HU 82 979 1 3 319
1954238N24285 1954 48 NA NA CAROL 1954-08-28 06:00:00 TS 30.2000 -76.9000 85 hurdat_atl main 391 376 I_____________ hurdat_atl AL061954 30.2000 -76.9000 HU 85 978 2 3 304
1954238N24285 1954 48 NA NA CAROL 1954-08-28 09:00:00 TS 30.2575 -77.0500 main 371 365 P_____________ AL061954 30.2575 -77.0500 HU 85 976 2 3 291
1954238N24285 1954 48 NA NA CAROL 1954-08-28 12:00:00 TS 30.3000 -77.2000 85 975 hurdat_atl main 365 351 O_____________ hurdat_atl AL061954 30.3000 -77.2000 HU 85 975 2 2 294
1954238N24285 1954 48 NA NA CAROL 1954-08-28 15:00:00 TS 30.3575 -77.3150 main 351 346 P_____________ AL061954 30.3575 -77.3150 HU 85 2 2 300
1954238N24285 1954 48 NA NA CAROL 1954-08-28 18:00:00 TS 30.4000 -77.4000 85 hurdat_atl main 346 340 O_____________ hurdat_atl AL061954 30.4000 -77.4000 HU 85 2 1 295
1954238N24285 1954 48 NA NA CAROL 1954-08-28 21:00:00 TS 30.4150 -77.4575 main 340 340 P_____________ AL061954 30.4150 -77.4575 HU 85 2 1 270
1954238N24285 1954 48 NA NA CAROL 1954-08-29 00:00:00 TS 30.4000 -77.5000 85 hurdat_atl main 340 340 O_____________ hurdat_atl AL061954 30.4000 -77.5000 HU 85 2 1 224
1954238N24285 1954 48 NA NA CAROL 1954-08-29 03:00:00 TS 30.3350 -77.5500 main 342 342 P_____________ AL061954 30.3350 -77.5500 HU 82 1 1 220
1954238N24285 1954 48 NA NA CAROL 1954-08-29 06:00:00 TS 30.3000 -77.6000 80 hurdat_atl main 342 334 O_____________ hurdat_atl AL061954 30.3000 -77.6000 HU 80 1 1 291
1954238N24285 1954 48 NA NA CAROL 1954-08-29 09:00:00 TS 30.3700 -77.6500 main 334 319 P_____________ AL061954 30.3700 -77.6500 HU 80 1 2 335
1954238N24285 1954 48 NA NA CAROL 1954-08-29 12:00:00 TS 30.5000 -77.7000 80 hurdat_atl main 319 305 O_____________ hurdat_atl AL061954 30.5000 -77.7000 HU 80 1 3 343
1954238N24285 1954 48 NA NA CAROL 1954-08-29 15:00:00 TS 30.6425 -77.7575 main 305 288 P_____________ AL061954 30.6425 -77.7575 HU 80 1 3 344
1954238N24285 1954 48 NA NA CAROL 1954-08-29 18:00:00 TS 30.8000 -77.8000 80 hurdat_atl main 288 278 O_____________ hurdat_atl AL061954 30.8000 -77.8000 HU 80 1 3 348
1954238N24285 1954 48 NA NA CAROL 1954-08-29 21:00:00 TS 30.9350 -77.8150 main 278 259 P_____________ AL061954 30.9350 -77.8150 HU 80 1 3 0
1954238N24285 1954 48 NA NA CAROL 1954-08-30 00:00:00 TS 31.1000 -77.8000 80 hurdat_atl main 259 241 O_____________ hurdat_atl AL061954 31.1000 -77.8000 HU 80 1 4 7
1954238N24285 1954 48 NA NA CAROL 1954-08-30 03:00:00 TS 31.3275 -77.7575 main 241 223 P_____________ AL061954 31.3275 -77.7575 HU 82 1 5 10
1954238N24285 1954 48 NA NA CAROL 1954-08-30 06:00:00 TS 31.6000 -77.7000 85 hurdat_atl main 223 201 O_____________ hurdat_atl AL061954 31.6000 -77.7000 HU 85 2 6 7
1954238N24285 1954 48 NA NA CAROL 1954-08-30 09:00:00 TS 31.8774 -77.6722 main 201 186 P_____________ AL061954 31.8774 -77.6722 HU 87 2 6 8
1954238N24285 1954 48 NA NA CAROL 1954-08-30 12:00:00 TS 32.2000 -77.6000 90 hurdat_atl main 186 162 O_____________ hurdat_atl AL061954 32.2000 -77.6000 HU 90 2 7 14
1954238N24285 1954 48 NA NA CAROL 1954-08-30 15:00:00 TS 32.5546 -77.4740 main 152 124 P_____________ AL061954 32.5546 -77.4740 HU 92 2 9 23
1954238N24285 1954 48 NA NA CAROL 1954-08-30 18:00:00 TS 33.0000 -77.2000 95 962 hurdat_atl main 124 114 O_____________ hurdat_atl AL061954 33.0000 -77.2000 HU 95 962 2 11 33
1954238N24285 1954 48 NA NA CAROL 1954-08-30 21:00:00 TS 33.4793 -76.7661 main 119 72 P_____________ AL061954 33.4793 -76.7661 HU 95 961 2 15 37
1954238N24285 1954 48 NA NA CAROL 1954-08-31 00:00:00 TS 34.2000 -76.1000 95 960 hurdat_atl main 66 56 O_____________ hurdat_atl AL061954 34.2000 -76.1000 HU 95 960 2 23 37
1954238N24285 1954 48 NA NA CAROL 1954-08-31 03:00:00 TS 35.2745 -75.1183 main 63 58 P_____________ AL061954 35.2745 -75.1183 HU 97 958 3 29 34
1954238N24285 1954 48 NA NA CAROL 1954-08-31 06:00:00 TS 36.6000 -74.1000 100 hurdat_atl main 149 149 I_____________ hurdat_atl AL061954 36.6000 -74.1000 HU 100 957 3 29 27
1954238N24285 1954 48 NA NA CAROL 1954-08-31 09:00:00 TS 37.8648 -73.4551 main 146 119 P_____________ AL061954 37.8648 -73.4551 HU 100 956 3 31 19
1954238N24285 1954 48 NA NA CAROL 1954-08-31 12:00:00 TS 39.5000 -72.8000 100 955 hurdat_atl main 121 27 O_____________ hurdat_atl AL061954 39.5000 -72.8000 HU 100 955 3 38 18
1954238N24285 1954 48 NA NA CAROL 1954-08-31 14:00:00 TS 40.9000 -72.2000 100 955 hurdat_atl main 27 11 O_____________ hurdat_atl AL061954 40.9000 -72.2000 L HU 100 955 3 38 19
1954238N24285 1954 48 NA NA CAROL 1954-08-31 15:00:00 TS 41.3000 -72.0000 100 957 hurdat_atl main 0 0 O_____________ hurdat_atl AL061954 41.3000 -72.0000 L HU 100 957 3 34 15
1954238N24285 1954 48 NA NA CAROL 1954-08-31 18:00:00 ET 43.1000 -71.4000 80 970 hurdat_atl main 0 0 O_____________ hurdat_atl AL061954 43.1000 -71.4000 EX 80 970 -4 35 11
1954238N24285 1954 48 NA NA CAROL 1954-08-31 21:00:00 ET 44.7550 -71.0672 main 0 0 P_____________ AL061954 44.7550 -71.0672 EX 65 978 -4 31 7
1954238N24285 1954 48 NA NA CAROL 1954-09-01 00:00:00 ET 46.2000 -70.9000 50 987 hurdat_atl main 0 0 O_____________ hurdat_atl AL061954 46.2000 -70.9000 EX 50 987 -4 27 5
1954238N24285 1954 48 NA NA CAROL 1954-09-01 03:00:00 ET 47.4151 -70.7171 main 0 0 P_____________ AL061954 47.4151 -70.7171 EX 45 989 -4 23 7
1954238N24285 1954 48 NA NA CAROL 1954-09-01 06:00:00 ET 48.5000 -70.5000 40 992 hurdat_atl main 0 O_____________ hurdat_atl AL061954 48.5000 -70.5000 EX 40 992 -4 22 8

About IBTrACS Database

This database is a web-friendly format of International Best Track Archive for Climate Stewardship (IBTrACS), a global best track data archive curated by NOAA dating back to 1842.

Updated: 2021-12-06